Sint Annaparochie, Netherlands
Current Conditions -  °F | °C
As of 8:25 AM on Friday 31 Oct 2014 (Local Time) from EHLW Reporting Station
Moderate Fog Moderate Fog  
Wind Chill: 52°   Ceiling: 100
Heat Index: 52°   Visibility: 0.21mi
Dew Point: 52°   Wind: 8mph
Humidity: 100%   Direction: 180°S
Pressure: 30.12"   Gusts: NA
Location:  53.28°N, 5.66°E
Report Text: EHLW 310725Z AUTO 18007KT 0350 R23/0750 FG OVC000 11/11 Q1020 RED 19006KT 0500 FG OVC001 BECMG 0800 FG OVC002
Loading
Personal Weather Stations






























Interactive Weather Map
Tropical Storm Tracking
New forecast layout! Learn more

10-Day Weather Forecast

Advertisements
Track Severe Weather on mobile